Time;durP1;ratioP1;P1;durP2;ratioP2;P2;SDS_P1;SDS_P2;PMS_P1;PMS_P2;Temp;Humidity;BMP_temperature;BMP_pressure;BME280_temperature;BME280_humidity;BME280_pressure;Samples;Min_cycle;Max_cycle;Signal;HPM_P1;HPM_P2
2022/10/27 00:03:25;;;;;;;92.03;46.37;;;7.60;99.90;;;;;;10404986;28;20121;-78
2022/10/27 00:08:25;;;;;;;86.37;47.53;;;7.40;99.90;;;;;;10394378;28;20141;-78
2022/10/27 00:13:26;;;;;;;89.10;46.13;;;7.40;99.90;;;;;;10368976;28;20081;-78
2022/10/27 00:18:27;;;;;;;92.50;50.67;;;7.30;99.90;;;;;;10365024;28;20029;-79
2022/10/27 00:23:28;;;;;;;101.33;57.93;;;7.40;99.90;;;;;;10380239;28;20030;-79
2022/10/27 00:28:30;;;;;;;163.70;74.97;;;7.50;99.90;;;;;;10381011;28;20037;-80
2022/10/27 00:33:31;;;;;;;144.37;64.23;;;7.50;99.90;;;;;;10377171;28;20425;-79
2022/10/27 00:38:32;;;;;;;155.97;60.40;;;7.50;99.90;;;;;;10373433;28;20118;-79
2022/10/27 00:43:35;;;;;;;101.97;52.53;;;7.40;99.90;;;;;;10387126;28;20566;-79
2022/10/27 00:48:36;;;;;;;158.30;60.03;;;7.50;99.90;;;;;;10402985;28;20492;-78
2022/10/27 00:53:36;;;;;;;80.40;44.73;;;7.50;99.90;;;;;;10413226;28;20026;-78
2022/10/27 00:58:38;;;;;;;87.63;45.97;;;7.50;99.90;;;;;;10394336;28;20037;-79
2022/10/27 01:03:38;;;;;;;102.30;50.57;;;7.50;99.90;;;;;;10399518;28;20041;-79
2022/10/27 01:08:39;;;;;;;109.87;54.43;;;7.50;99.90;;;;;;10412368;28;20065;-79
2022/10/27 01:13:40;;;;;;;88.90;48.27;;;7.40;99.90;;;;;;10402319;28;20079;-78
2022/10/27 01:18:54;;;;;;;105.57;51.30;;;7.40;99.90;;;;;;10404641;28;20144;-79
2022/10/27 01:23:55;;;;;;;128.27;54.87;;;7.50;99.90;;;;;;10398291;28;20041;-79
2022/10/27 01:29:16;;;;;;;203.30;67.30;;;7.50;99.90;;;;;;10392749;28;20030;-81
2022/10/27 01:34:24;;;;;;;134.53;54.93;;;7.50;99.90;;;;;;10404999;28;20049;-79
2022/10/27 01:39:37;;;;;;;231.80;66.80;;;7.50;99.90;;;;;;10409053;28;20043;-79
2022/10/27 01:44:43;;;;;;;109.50;50.57;;;7.50;99.90;;;;;;10410083;28;20041;-79
2022/10/27 01:49:44;;;;;;;268.97;65.57;;;7.50;99.90;;;;;;10392786;28;20487;-80
2022/10/27 01:54:44;;;;;;;136.57;51.83;;;7.60;99.90;;;;;;10403712;28;20061;-80
2022/10/27 01:59:57;;;;;;;194.40;55.00;;;7.60;99.90;;;;;;10408977;28;20136;-80
2022/10/27 02:05:15;;;;;;;182.03;54.77;;;7.60;99.90;;;;;;10397702;28;20485;-79
2022/10/27 02:10:20;;;;;;;83.87;43.43;;;7.60;99.90;;;;;;10397586;28;20115;-79
2022/10/27 02:15:49;;;;;;;113.50;46.20;;;7.70;99.90;;;;;;10403486;28;20037;-79
2022/10/27 02:20:52;;;;;;;353.57;66.30;;;7.80;99.90;;;;;;10398663;28;20037;-79
2022/10/27 02:26:22;;;;;;;117.60;49.33;;;7.90;99.90;;;;;;10393926;28;20104;-80
2022/10/27 02:31:30;;;;;;;95.73;43.37;;;7.90;99.90;;;;;;10401974;28;20033;-79
2022/10/27 02:36:31;;;;;;;108.60;45.47;;;7.90;99.90;;;;;;10406884;28;20429;-80
2022/10/27 02:41:31;;;;;;;276.90;64.67;;;8.00;99.90;;;;;;10393478;28;20034;-78
2022/10/27 02:46:32;;;;;;;130.03;49.47;;;8.00;99.90;;;;;;10406693;28;20541;-79
2022/10/27 02:51:33;;;;;;;156.77;49.80;;;8.00;99.90;;;;;;10408196;28;20033;-79
2022/10/27 02:56:33;;;;;;;112.77;48.40;;;8.10;99.90;;;;;;10405086;28;20408;-81
2022/10/27 03:01:34;;;;;;;207.13;63.97;;;8.20;99.90;;;;;;10403018;28;20034;-79
2022/10/27 03:06:34;;;;;;;273.60;62.20;;;8.20;99.90;;;;;;10395697;28;20053;-80
2022/10/27 03:11:35;;;;;;;385.37;75.47;;;8.30;99.90;;;;;;10385108;28;20025;-80
2022/10/27 03:16:35;;;;;;;156.20;57.33;;;8.30;99.90;;;;;;10402555;28;20029;-78
2022/10/27 03:21:36;;;;;;;146.40;54.47;;;8.40;99.90;;;;;;10407882;28;20041;-80
2022/10/27 03:26:37;;;;;;;141.60;50.43;;;8.50;99.90;;;;;;10405673;28;20060;-79
2022/10/27 03:31:37;;;;;;;164.40;48.63;;;8.50;99.90;;;;;;10397786;28;20116;-78
2022/10/27 03:36:38;;;;;;;156.07;54.20;;;8.50;99.90;;;;;;10403470;28;20050;-80
2022/10/27 03:41:38;;;;;;;142.63;55.03;;;8.50;99.90;;;;;;10405100;28;20043;-79
2022/10/27 03:46:39;;;;;;;114.60;49.00;;;8.60;99.90;;;;;;10399208;28;20064;-79
2022/10/27 03:51:39;;;;;;;159.60;41.30;;;8.60;99.90;;;;;;10404019;28;20033;-78
2022/10/27 03:56:40;;;;;;;237.30;48.47;;;8.60;99.90;;;;;;10400190;28;20491;-79
2022/10/27 04:01:41;;;;;;;256.17;53.13;;;8.60;99.90;;;;;;10394258;28;20049;-78
2022/10/27 04:06:42;;;;;;;77.80;34.37;;;8.60;99.90;;;;;;10397801;28;20099;-79
2022/10/27 04:11:42;;;;;;;105.97;45.83;;;8.50;99.90;;;;;;10402327;28;20809;-80
2022/10/27 04:16:43;;;;;;;88.47;38.10;;;8.60;99.90;;;;;;10396522;28;20037;-79
2022/10/27 04:21:44;;;;;;;157.97;50.53;;;8.60;99.90;;;;;;10400908;28;20547;-80
2022/10/27 04:26:44;;;;;;;153.10;52.90;;;8.60;99.90;;;;;;10398676;28;20501;-79
2022/10/27 04:31:45;;;;;;;160.87;56.00;;;8.50;99.90;;;;;;10405687;28;20540;-80
2022/10/27 04:36:45;;;;;;;250.80;59.43;;;8.50;99.90;;;;;;10393316;28;20041;-79
2022/10/27 04:41:46;;;;;;;177.70;56.40;;;8.40;99.90;;;;;;10404330;28;20033;-79
2022/10/27 04:46:46;;;;;;;208.77;54.83;;;8.40;99.90;;;;;;10404527;28;20036;-80
2022/10/27 04:51:47;;;;;;;201.60;57.20;;;8.40;99.90;;;;;;10397933;28;20057;-79
2022/10/27 04:56:48;;;;;;;180.70;57.10;;;8.40;99.90;;;;;;10402164;28;20469;-80
2022/10/27 05:01:48;;;;;;;261.57;59.50;;;8.40;99.90;;;;;;10404454;28;20033;-80
2022/10/27 05:06:49;;;;;;;341.87;72.83;;;8.40;99.90;;;;;;10404320;28;20053;-79
2022/10/27 05:11:49;;;;;;;187.90;54.77;;;8.40;99.90;;;;;;10390359;28;20631;-79
2022/10/27 05:16:50;;;;;;;229.50;63.00;;;8.40;99.90;;;;;;10404847;28;20045;-79
2022/10/27 05:21:50;;;;;;;171.97;60.90;;;8.40;99.90;;;;;;10406810;28;20069;-79
2022/10/27 05:26:51;;;;;;;158.53;60.83;;;8.40;99.90;;;;;;10411353;28;20038;-79
2022/10/27 05:31:51;;;;;;;145.33;55.53;;;8.40;99.90;;;;;;10412182;28;20037;-79
2022/10/27 05:36:52;;;;;;;158.77;60.43;;;8.50;99.90;;;;;;10411029;28;20102;-79
2022/10/27 05:41:53;;;;;;;130.47;52.53;;;8.50;99.90;;;;;;10410957;28;20040;-80
2022/10/27 05:46:54;;;;;;;222.30;61.70;;;8.60;99.90;;;;;;10410555;28;20025;-79
2022/10/27 05:51:55;;;;;;;170.00;60.17;;;8.70;99.90;;;;;;10410316;28;20025;-80
2022/10/27 05:56:55;;;;;;;461.97;88.33;;;8.70;99.90;;;;;;10410796;28;20364;-79
2022/10/27 06:01:56;;;;;;;240.27;77.50;;;8.70;99.90;;;;;;10410383;28;20821;-79
2022/10/27 06:06:56;;;;;;;180.90;63.13;;;8.70;99.90;;;;;;10409704;28;20053;-80
2022/10/27 06:11:57;;;;;;;136.67;58.77;;;8.70;99.90;;;;;;10410025;28;20022;-79
2022/10/27 06:16:58;;;;;;;152.20;61.23;;;8.70;99.90;;;;;;10409318;28;20034;-79
2022/10/27 06:21:59;;;;;;;174.03;53.77;;;8.80;99.90;;;;;;10409845;28;20029;-79
2022/10/27 06:26:59;;;;;;;105.13;53.97;;;8.90;99.90;;;;;;10409322;28;20040;-79
2022/10/27 06:32:00;;;;;;;204.07;68.10;;;8.90;99.90;;;;;;10408749;28;20033;-79
2022/10/27 06:37:02;;;;;;;153.23;63.13;;;9.00;99.90;;;;;;10409434;28;20045;-79
2022/10/27 06:42:02;;;;;;;123.30;55.87;;;9.10;99.90;;;;;;10408538;28;20053;-79
2022/10/27 06:47:03;;;;;;;108.47;43.03;;;9.10;99.90;;;;;;10394470;28;20033;-79
2022/10/27 06:52:04;;;;;;;118.20;44.97;;;9.20;99.90;;;;;;10408990;28;20025;-80
2022/10/27 06:57:05;;;;;;;103.23;45.50;;;9.30;99.90;;;;;;10408283;28;20036;-79
2022/10/27 07:02:08;;;;;;;95.03;43.75;;;9.40;99.90;;;;;;10407896;28;20039;-80
2022/10/27 07:07:09;;;;;;;118.17;55.53;;;9.50;99.90;;;;;;10405897;28;20438;-80
2022/10/27 07:12:09;;;;;;;128.80;52.38;;;9.50;99.90;;;;;;10407224;28;20030;-79
2022/10/27 07:17:10;;;;;;;112.93;49.67;;;9.60;99.90;;;;;;10407050;28;20053;-80
2022/10/27 07:22:10;;;;;;;133.95;52.58;;;9.80;99.90;;;;;;10406849;28;20065;-81
2022/10/27 07:27:11;;;;;;;302.80;71.32;;;9.90;99.90;;;;;;10406560;28;20097;-79
2022/10/27 07:32:11;;;;;;;129.82;60.42;;;10.00;99.90;;;;;;10406591;28;20029;-80
2022/10/27 07:37:12;;;;;;;209.63;70.45;;;10.10;99.90;;;;;;10406431;28;20043;-79
2022/10/27 07:42:12;;;;;;;169.80;61.50;;;10.40;99.90;;;;;;10405973;28;20048;-79
2022/10/27 07:47:13;;;;;;;139.75;53.75;;;10.50;99.90;;;;;;10405854;28;20026;-80
2022/10/27 07:52:13;;;;;;;110.43;44.65;;;10.60;99.90;;;;;;10406316;28;20367;-79
2022/10/27 07:57:14;;;;;;;101.32;44.10;;;10.70;99.90;;;;;;10406523;28;20559;-80
2022/10/27 08:02:14;;;;;;;135.63;49.38;;;10.80;99.90;;;;;;10405720;28;20090;-78
2022/10/27 08:07:15;;;;;;;121.80;44.92;;;10.80;99.90;;;;;;10405579;28;20533;-79
2022/10/27 08:12:15;;;;;;;166.63;49.15;;;11.00;99.90;;;;;;10405079;28;20018;-79
2022/10/27 08:17:16;;;;;;;216.88;51.22;;;11.10;99.90;;;;;;10405261;28;20032;-79
2022/10/27 08:22:16;;;;;;;122.95;49.70;;;11.20;99.90;;;;;;10391245;28;20493;-80
2022/10/27 08:27:17;;;;;;;83.05;41.88;;;11.30;99.90;;;;;;10405298;28;20112;-80
2022/10/27 08:32:18;;;;;;;129.02;45.13;;;11.40;99.90;;;;;;10404648;28;20048;-79
2022/10/27 08:37:18;;;;;;;384.80;64.13;;;11.60;99.90;;;;;;10404778;28;20425;-80
2022/10/27 08:42:46;;;;;;;98.20;45.97;;;11.70;99.90;;;;;;10403393;28;20083;-80
2022/10/27 08:47:47;;;;;;;173.52;54.65;;;11.70;99.90;;;;;;10404557;28;20030;-80
2022/10/27 08:52:57;;;;;;;121.63;54.10;;;11.80;99.90;;;;;;10404833;28;20029;-80
2022/10/27 08:58:19;;;;;;;103.65;48.65;;;12.00;99.90;;;;;;10409372;28;20033;-79
2022/10/27 09:03:40;;;;;;;104.22;49.70;;;12.30;99.90;;;;;;10412101;28;20076;-80
2022/10/27 09:08:53;;;;;;;88.75;45.65;;;12.60;99.90;;;;;;10412012;28;20140;-79
2022/10/27 09:14:12;;;;;;;86.38;45.40;;;12.90;99.90;;;;;;10411754;28;20113;-79
2022/10/27 09:19:18;;;;;;;83.05;44.03;;;13.00;99.90;;;;;;10412138;28;20029;-79
2022/10/27 09:24:22;;;;;;;81.25;44.15;;;13.00;99.90;;;;;;10411396;28;20042;-79
2022/10/27 09:29:23;;;;;;;83.55;46.53;;;13.10;99.90;;;;;;10412166;28;20034;-79
2022/10/27 09:34:34;;;;;;;89.35;49.45;;;13.30;99.90;;;;;;10411380;28;20036;-79
2022/10/27 09:39:35;;;;;;;85.00;50.13;;;13.20;99.90;;;;;;10411741;28;20040;-79
2022/10/27 09:44:36;;;;;;;90.57;48.05;;;13.20;99.90;;;;;;10409718;28;20025;-79
2022/10/27 09:49:39;;;;;;;82.57;47.78;;;13.60;99.90;;;;;;10411315;28;20495;-80
2022/10/27 09:54:48;;;;;;;77.10;44.05;;;14.00;99.90;;;;;;10410856;28;20029;-79
2022/10/27 10:00:20;;;;;;;78.70;45.72;;;14.40;99.90;;;;;;10411315;28;20485;-78
2022/10/27 10:05:24;;;;;;;73.70;43.85;;;14.70;99.90;;;;;;10410559;28;20025;-80
2022/10/27 10:10:29;;;;;;;68.10;40.55;;;15.00;99.90;;;;;;10409506;28;20021;-80
2022/10/27 10:15:35;;;;;;;67.32;42.45;;;15.30;99.90;;;;;;10410574;28;20112;-80
2022/10/27 10:20:39;;;;;;;;;;;15.60;99.90;;;;;;10409633;28;20144;-80
2022/10/27 10:25:46;;;;;;;65.93;39.88;;;15.70;99.90;;;;;;10407282;28;19948;-79
2022/10/27 10:30:51;;;;;;;54.13;33.75;;;16.10;99.90;;;;;;10396205;28;20108;-80
2022/10/27 10:35:52;;;;;;;;;;;16.40;99.90;;;;;;10406785;28;20058;-80
2022/10/27 10:41:15;;;;;;;50.92;32.55;;;16.60;99.90;;;;;;10397150;28;20008;-78
2022/10/27 10:46:24;;;;;;;48.10;30.85;;;16.90;99.90;;;;;;10408527;28;20035;-78
2022/10/27 10:51:34;;;;;;;50.30;29.67;;;17.10;99.90;;;;;;10408700;28;20116;-79
2022/10/27 10:56:36;;;;;;;48.35;29.52;;;17.40;99.90;;;;;;10400650;28;20056;-78
2022/10/27 11:01:51;;;;;;;40.28;22.58;;;17.60;99.90;;;;;;10388160;28;20044;-78
2022/10/27 11:06:58;;;;;;;38.63;22.38;;;17.70;99.90;;;;;;10399168;28;20055;-79
2022/10/27 11:12:00;;;;;;;34.80;21.45;;;17.70;99.90;;;;;;10407984;28;20021;-79
2022/10/27 11:17:03;;;;;;;37.97;22.13;;;17.70;99.90;;;;;;10406937;28;20029;-79
2022/10/27 11:22:10;;;;;;;34.65;20.67;;;17.80;99.90;;;;;;10406229;28;20062;-79
2022/10/27 11:27:36;;;;;;;35.92;20.98;;;17.80;99.90;;;;;;10396236;28;20109;-79
2022/10/27 11:32:46;;;;;;;33.30;21.50;;;18.10;99.90;;;;;;10400459;28;20033;-80
2022/10/27 11:38:01;;;;;;;32.80;20.35;;;18.20;99.90;;;;;;10406523;28;20060;-78
2022/10/27 11:43:40;;;;;;;30.13;16.93;;;18.30;99.90;;;;;;10392195;28;20075;-81
2022/10/27 11:48:46;;;;;;;31.23;17.40;;;18.40;99.90;;;;;;10404003;28;20041;-79
2022/10/27 11:53:48;;;;;;;;;;;18.40;99.90;;;;;;10406328;28;20021;-81
2022/10/27 11:59:17;;;;;;;31.98;17.27;;;18.50;99.90;;;;;;10405826;28;19911;-78
2022/10/27 12:04:38;;;;;;;21.52;10.20;;;18.70;99.90;;;;;;10404750;28;20037;-81
2022/10/27 12:10:05;;;;;;;19.90;9.57;;;18.80;99.90;;;;;;10405191;28;20045;-78
2022/10/27 12:15:14;;;;;;;20.33;10.80;;;18.90;99.90;;;;;;10405865;28;20024;-78
2022/10/27 12:20:23;;;;;;;19.27;10.27;;;19.10;99.90;;;;;;10405596;28;20026;-80
2022/10/27 12:25:34;;;;;;;18.58;9.68;;;19.10;99.90;;;;;;10403457;28;20041;-78
2022/10/27 12:30:38;;;;;;;16.63;10.18;;;19.10;99.90;;;;;;10393491;28;20033;-79
2022/10/27 12:35:50;;;;;;;15.32;9.98;;;19.20;99.90;;;;;;10404545;28;20022;-79
2022/10/27 12:41:30;;;;;;;17.63;8.68;;;19.20;99.90;;;;;;10404680;28;20048;-80
2022/10/27 12:47:01;;;;;;;22.00;11.65;;;18.90;99.90;;;;;;10404187;28;20045;-78
2022/10/27 12:52:16;;;;;;;26.65;15.35;;;18.80;99.90;;;;;;10404848;28;20087;-78
2022/10/27 12:57:38;;;;;;;20.00;11.80;;;18.70;99.90;;;;;;10394597;28;20025;-79
2022/10/27 13:03:06;;;;;;;19.95;9.43;;;18.80;99.90;;;;;;10403413;28;20048;-80
2022/10/27 13:08:31;;;;;;;16.05;10.38;;;18.90;99.90;;;;;;10383651;28;20077;-79
2022/10/27 13:13:42;;;;;;;16.60;10.57;;;18.90;99.90;;;;;;10395116;28;20877;-80
2022/10/27 13:18:55;;;;;;;23.50;14.18;;;18.90;99.90;;;;;;10394235;28;20034;-80
2022/10/27 13:24:08;;;;;;;22.30;12.48;;;18.90;99.90;;;;;;10398815;28;20076;-78
2022/10/27 13:29:57;;;;;;;27.95;15.27;;;18.90;99.90;;;;;;10387451;28;20021;-79
2022/10/27 13:35:00;;;;;;;21.50;11.35;;;19.00;99.90;;;;;;10394303;28;20073;-79
2022/10/27 13:40:01;;;;;;;22.10;11.35;;;19.00;99.90;;;;;;10401521;28;20033;-79
2022/10/27 13:45:33;;;;;;;19.27;11.88;;;18.90;99.90;;;;;;10404347;28;20714;-80
2022/10/27 13:50:51;;;;;;;20.23;11.88;;;18.80;99.90;;;;;;10402207;28;20096;-80
2022/10/27 13:56:08;;;;;;;21.83;12.93;;;18.60;99.90;;;;;;10400450;28;20496;-79
2022/10/27 14:01:47;;;;;;;19.25;10.63;;;18.30;99.90;;;;;;10393715;28;20040;-78
2022/10/27 14:06:58;;;;;;;23.52;11.50;;;18.00;99.90;;;;;;10401269;28;20052;-79
2022/10/27 14:12:02;;;;;;;26.13;13.27;;;17.70;99.90;;;;;;10409747;28;20021;-78
2022/10/27 14:17:14;;;;;;;39.30;21.27;;;17.50;99.90;;;;;;10403570;28;20651;-78
2022/10/27 14:22:41;;;;;;;91.55;43.45;;;17.30;99.90;;;;;;10408439;28;20049;-79
2022/10/27 14:27:43;;;;;;;45.58;26.15;;;17.20;99.90;;;;;;10389034;28;20038;-81
2022/10/27 14:32:43;;;;;;;28.17;18.20;;;17.00;99.90;;;;;;10403937;28;20044;-79
2022/10/27 14:37:45;;;;;;;23.42;13.95;;;17.00;99.90;;;;;;10409085;28;20021;-78
2022/10/27 14:42:48;;;;;;;22.38;12.90;;;17.00;99.90;;;;;;10396128;28;20041;-78
2022/10/27 14:48:03;;;;;;;21.23;12.23;;;17.00;99.90;;;;;;10407577;28;20620;-78
2022/10/27 14:53:03;;;;;;;25.47;16.10;;;17.00;99.90;;;;;;10406508;28;20021;-80
2022/10/27 14:58:05;;;;;;;28.17;17.45;;;16.90;99.90;;;;;;10406616;28;20033;-79
2022/10/27 15:03:10;;;;;;;25.83;14.32;;;16.70;99.90;;;;;;10396805;28;20053;-79
2022/10/27 15:08:34;;;;;;;22.50;12.20;;;16.50;99.90;;;;;;10407602;28;20058;-78
2022/10/27 15:13:35;;;;;;;27.33;13.77;;;16.20;99.90;;;;;;10386639;28;20421;-78
2022/10/27 15:18:41;;;;;;;36.50;17.50;;;15.80;99.90;;;;;;10401772;28;20045;-79
2022/10/27 15:23:43;;;;;;;48.20;22.40;;;15.50;99.90;;;;;;10407408;28;20124;-79
2022/10/27 15:28:44;;;;;;;56.90;27.45;;;15.20;99.90;;;;;;10406308;28;20111;-78
2022/10/27 15:33:46;;;;;;;55.67;26.33;;;14.90;99.90;;;;;;10404496;28;20026;-80
2022/10/27 15:38:49;;;;;;;44.00;21.63;;;14.60;99.90;;;;;;10399842;28;20033;-78
2022/10/27 15:44:10;;;;;;;36.97;21.00;;;14.50;99.90;;;;;;10390031;28;20551;-79
2022/10/27 15:49:29;;;;;;;44.60;27.45;;;14.20;99.90;;;;;;10398321;28;20037;-77
2022/10/27 15:54:48;;;;;;;62.88;42.60;;;14.10;99.90;;;;;;10398489;28;20123;-79
2022/10/27 16:00:12;;;;;;;45.97;28.20;;;13.90;99.90;;;;;;10390866;28;20041;-78
2022/10/27 16:05:31;;;;;;;67.80;39.78;;;13.70;99.90;;;;;;10395590;28;20037;-78
2022/10/27 16:10:31;;;;;;;108.38;73.15;;;13.60;99.90;;;;;;10402650;28;20045;-78
2022/10/27 16:15:35;;;;;;;102.85;66.47;;;13.50;99.90;;;;;;10404477;28;20973;-78
2022/10/27 16:20:39;;;;;;;68.88;38.38;;;13.40;99.90;;;;;;10384298;28;20048;-78
2022/10/27 16:25:43;;;;;;;91.70;59.03;;;13.30;99.90;;;;;;10394437;28;20478;-79
2022/10/27 16:30:44;;;;;;;128.52;88.68;;;13.20;99.90;;;;;;10388721;28;20405;-79
2022/10/27 16:35:45;;;;;;;108.20;75.38;;;13.20;99.90;;;;;;10390735;28;20033;-79
2022/10/27 16:40:46;;;;;;;110.13;66.55;;;13.10;99.90;;;;;;10388233;28;20111;-80
2022/10/27 16:45:47;;;;;;;137.85;81.03;;;13.00;99.90;;;;;;10396994;28;20524;-78
2022/10/27 16:50:47;;;;;;;132.02;79.70;;;12.90;99.90;;;;;;10399227;28;20441;-79
2022/10/27 16:56:03;;;;;;;108.38;67.15;;;12.80;99.90;;;;;;10403141;28;20472;-78
2022/10/27 17:01:05;;;;;;;112.90;73.13;;;12.70;99.90;;;;;;10402034;28;20044;-78
2022/10/27 17:06:06;;;;;;;206.68;144.65;;;12.60;99.90;;;;;;10398030;28;20123;-79
2022/10/27 17:11:09;;;;;;;255.02;179.88;;;12.50;99.90;;;;;;10403131;28;20034;-78
2022/10/27 17:16:17;;;;;;;172.13;117.68;;;12.50;99.90;;;;;;10403302;28;20030;-80
2022/10/27 17:21:18;;;;;;;107.90;70.28;;;12.40;99.90;;;;;;10411826;28;20135;-81
2022/10/27 17:26:19;;;;;;;139.75;92.43;;;12.30;99.90;;;;;;10400397;28;20055;-80
2022/10/27 17:31:20;;;;;;;106.00;70.07;;;12.20;99.90;;;;;;10403864;28;20496;-79
2022/10/27 17:36:20;;;;;;;68.18;38.90;;;12.20;99.90;;;;;;10389436;28;20140;-81
2022/10/27 17:41:21;;;;;;;64.15;39.33;;;12.30;99.90;;;;;;10401410;28;20590;-80
2022/10/27 17:46:23;;;;;;;62.90;35.47;;;12.30;99.90;;;;;;10406411;28;20115;-79
2022/10/27 17:51:29;;;;;;;53.55;31.67;;;12.40;99.90;;;;;;10389937;28;20037;-79
2022/10/27 17:56:32;;;;;;;54.03;33.03;;;12.40;99.90;;;;;;10407003;28;20031;-79
2022/10/27 18:01:34;;;;;;;53.30;31.95;;;12.30;99.90;;;;;;10404432;28;20045;-79
2022/10/27 18:06:37;;;;;;;72.53;40.63;;;12.30;99.90;;;;;;10399319;28;20045;-78
2022/10/27 18:11:38;;;;;;;66.05;38.90;;;12.20;99.90;;;;;;10406603;28;20052;-77
2022/10/27 18:16:40;;;;;;;68.25;41.47;;;12.10;99.90;;;;;;10406596;28;20429;-79
2022/10/27 18:21:43;;;;;;;85.57;55.97;;;11.90;99.90;;;;;;10393031;28;20049;-79
2022/10/27 18:26:46;;;;;;;80.13;50.85;;;11.80;99.90;;;;;;10387755;28;20044;-78
2022/10/27 18:31:47;;;;;;;110.93;71.57;;;11.70;99.90;;;;;;10399246;28;20033;-79
2022/10/27 18:36:48;;;;;;;90.55;62.03;;;11.60;99.90;;;;;;10391938;28;20042;-79
2022/10/27 18:41:48;;;;;;;133.55;83.00;;;11.60;99.90;;;;;;10393653;28;20045;-81
2022/10/27 18:46:49;;;;;;;114.53;73.13;;;11.50;99.90;;;;;;10398882;28;20029;-80
2022/10/27 18:51:50;;;;;;;155.20;105.53;;;11.50;99.90;;;;;;10405505;28;20040;-79
2022/10/27 18:56:50;;;;;;;126.88;85.93;;;11.50;99.90;;;;;;10396359;28;20469;-79
2022/10/27 19:01:52;;;;;;;145.00;91.07;;;11.50;99.90;;;;;;10405792;28;20045;-79
2022/10/27 19:06:52;;;;;;;134.10;79.78;;;11.50;99.90;;;;;;10407948;28;20049;-79
2022/10/27 19:11:53;;;;;;;89.05;58.08;;;11.50;99.90;;;;;;10405226;28;20022;-78
2022/10/27 19:16:53;;;;;;;125.10;79.07;;;11.40;99.90;;;;;;10384130;28;20473;-79
2022/10/27 19:21:54;;;;;;;115.80;76.07;;;11.30;99.90;;;;;;10379604;28;20061;-80
2022/10/27 19:26:55;;;;;;;138.88;84.53;;;11.20;99.90;;;;;;10390444;28;20040;-80
2022/10/27 19:31:55;;;;;;;169.98;82.63;;;11.00;99.90;;;;;;10405007;28;20076;-79
2022/10/27 19:36:56;;;;;;;228.18;109.70;;;10.80;99.90;;;;;;10405604;28;20033;-81
2022/10/27 19:41:57;;;;;;;192.30;116.10;;;10.80;99.90;;;;;;10393797;28;20041;-80
2022/10/27 19:46:59;;;;;;;279.30;128.38;;;10.70;99.90;;;;;;10394649;28;20033;-80
2022/10/27 19:51:59;;;;;;;301.83;141.18;;;10.70;99.90;;;;;;10404646;28;20032;-79
2022/10/27 19:57:00;;;;;;;231.80;123.05;;;10.70;99.90;;;;;;10395466;28;20535;-80
2022/10/27 20:02:01;;;;;;;186.45;105.43;;;10.60;99.90;;;;;;10402250;28;20042;-79
2022/10/27 20:07:01;;;;;;;183.93;95.63;;;10.70;99.90;;;;;;10391249;28;20520;-80
2022/10/27 20:12:02;;;;;;;173.25;89.40;;;10.70;99.90;;;;;;10391839;28;20067;-79
2022/10/27 20:17:04;;;;;;;137.82;78.55;;;10.70;99.90;;;;;;10401890;28;20034;-79
2022/10/27 20:22:05;;;;;;;170.73;84.10;;;10.70;99.90;;;;;;10403871;28;20052;-80
2022/10/27 20:27:05;;;;;;;204.80;104.70;;;10.60;99.90;;;;;;10386128;28;20036;-80
2022/10/27 20:32:06;;;;;;;219.50;105.80;;;10.60;99.90;;;;;;10402891;28;20465;-79
2022/10/27 20:37:07;;;;;;;238.68;121.38;;;10.60;99.90;;;;;;10404087;28;20560;-79
2022/10/27 20:42:07;;;;;;;204.20;117.88;;;10.60;99.90;;;;;;10400413;28;20116;-79
2022/10/27 20:47:08;;;;;;;234.48;119.85;;;10.60;99.90;;;;;;10403455;28;20025;-80
2022/10/27 20:52:08;;;;;;;183.90;101.18;;;10.70;99.90;;;;;;10401025;28;20029;-79
2022/10/27 20:57:09;;;;;;;236.60;102.53;;;10.60;99.90;;;;;;10401585;28;20394;-81
2022/10/27 21:02:09;;;;;;;181.15;89.22;;;10.50;99.90;;;;;;10397009;28;20580;-79
2022/10/27 21:07:10;;;;;;;175.68;98.35;;;10.50;99.90;;;;;;10398303;28;20127;-81
2022/10/27 21:12:11;;;;;;;111.97;72.65;;;10.40;99.90;;;;;;10411669;28;20021;-79
2022/10/27 21:17:12;;;;;;;178.80;88.22;;;10.40;99.90;;;;;;10409602;28;20421;-79
2022/10/27 21:22:13;;;;;;;131.98;83.28;;;10.20;99.90;;;;;;10411726;28;20056;-79
2022/10/27 21:27:13;;;;;;;122.32;78.60;;;10.20;99.90;;;;;;10398308;28;20396;-80
2022/10/27 21:32:14;;;;;;;407.95;126.45;;;10.10;99.90;;;;;;10403347;28;20030;-80
2022/10/27 21:37:15;;;;;;;548.53;141.98;;;10.10;99.90;;;;;;10409879;28;20067;-79
2022/10/27 21:42:16;;;;;;;407.73;110.60;;;10.10;99.90;;;;;;10408700;28;20167;-80
2022/10/27 21:47:17;;;;;;;777.50;154.27;;;10.00;99.90;;;;;;10408523;28;20026;-80
2022/10/27 21:52:17;;;;;;;127.75;77.30;;;9.90;99.90;;;;;;10397304;28;20042;-81
2022/10/27 21:57:18;;;;;;;156.38;82.82;;;9.90;99.90;;;;;;10396113;28;20044;-80
2022/10/27 22:02:18;;;;;;;175.45;86.45;;;10.00;99.90;;;;;;10407510;28;20052;-80
2022/10/27 22:07:19;;;;;;;256.08;100.10;;;10.00;99.90;;;;;;10397254;28;20053;-79
2022/10/27 22:12:19;;;;;;;164.40;80.78;;;9.90;99.90;;;;;;10409433;28;20038;-80
2022/10/27 22:17:20;;;;;;;136.02;75.50;;;10.00;99.90;;;;;;10409152;28;20072;-79
2022/10/27 22:22:20;;;;;;;195.50;81.05;;;9.90;99.90;;;;;;10395909;28;20473;-79
2022/10/27 22:27:21;;;;;;;361.63;94.00;;;9.90;99.90;;;;;;10408983;28;20090;-80
2022/10/27 22:32:21;;;;;;;107.47;65.05;;;9.80;99.90;;;;;;10401118;28;20124;-80
2022/10/27 22:37:22;;;;;;;196.13;76.80;;;9.60;99.90;;;;;;10406115;28;20037;-80
2022/10/27 22:42:23;;;;;;;104.40;58.95;;;9.60;99.90;;;;;;10403096;28;20049;-79
2022/10/27 22:47:23;;;;;;;191.25;71.63;;;9.50;99.90;;;;;;10399549;28;20489;-79
2022/10/27 22:52:24;;;;;;;157.33;73.67;;;9.40;99.90;;;;;;10407702;28;20623;-80
2022/10/27 22:57:24;;;;;;;398.23;93.28;;;9.30;99.90;;;;;;10407361;28;20029;-80
2022/10/27 23:02:25;;;;;;;191.50;77.97;;;9.20;99.90;;;;;;10406671;28;20044;-79
2022/10/27 23:07:26;;;;;;;244.30;84.43;;;9.20;99.90;;;;;;10408486;28;20195;-79
2022/10/27 23:12:27;;;;;;;121.67;64.33;;;9.00;99.90;;;;;;10400449;28;20069;-79
2022/10/27 23:17:27;;;;;;;243.07;77.97;;;9.00;99.90;;;;;;10394835;28;20108;-80
2022/10/27 23:22:28;;;;;;;330.47;89.90;;;9.00;99.90;;;;;;10398192;28;20120;-80
2022/10/27 23:27:28;;;;;;;468.67;104.00;;;8.90;99.90;;;;;;10399787;28;20724;-80
2022/10/27 23:32:29;;;;;;;261.07;80.77;;;8.90;99.90;;;;;;10390467;28;20068;-81
2022/10/27 23:37:29;;;;;;;126.80;62.60;;;9.00;99.90;;;;;;10384188;28;20022;-80
2022/10/27 23:42:30;;;;;;;96.63;54.60;;;9.10;99.90;;;;;;10394321;28;20033;-80
2022/10/27 23:47:30;;;;;;;102.27;55.33;;;9.20;99.90;;;;;;10404774;28;20087;-79
2022/10/27 23:52:31;;;;;;;123.37;60.23;;;9.30;99.90;;;;;;10406016;28;20061;-80
2022/10/27 23:57:31;;;;;;;319.93;88.97;;;9.30;99.90;;;;;;10401148;28;20492;-80
